createdAt,value
2017-11-06T00:02:15.810Z,72.80
2017-11-06T00:04:43.339Z,72.80
2017-11-06T00:07:10.776Z,72.40
2017-11-06T00:09:38.228Z,73.00
2017-11-06T00:12:05.671Z,72.30
2017-11-06T00:14:33.180Z,73.00
2017-11-06T00:17:00.626Z,72.50
2017-11-06T00:19:28.073Z,72.90
2017-11-06T00:21:55.536Z,72.60
2017-11-06T00:24:23.087Z,72.30
2017-11-06T00:26:50.693Z,72.00
2017-11-06T00:29:18.130Z,72.20
2017-11-06T00:31:45.577Z,71.80
2017-11-06T00:34:13.024Z,71.60
2017-11-06T00:36:40.467Z,72.80
2017-11-06T00:39:07.934Z,73.60
2017-11-06T00:41:35.359Z,72.80
2017-11-06T00:44:02.804Z,72.80
2017-11-06T00:46:30.228Z,72.90
2017-11-06T00:48:57.664Z,72.30
2017-11-06T00:51:25.140Z,73.10
2017-11-06T00:53:52.606Z,72.90
2017-11-06T00:56:20.041Z,72.00
2017-11-06T00:58:47.505Z,72.50
2017-11-06T01:01:14.946Z,71.80
2017-11-06T01:03:42.429Z,72.00
2017-11-06T01:06:09.855Z,71.40
2017-11-06T01:08:38.079Z,72.20
2017-11-06T01:11:05.588Z,72.30
2017-11-06T01:13:33.015Z,72.30
2017-11-06T01:16:00.511Z,72.40
2017-11-06T01:18:27.987Z,72.40
2017-11-06T01:20:56.202Z,72.10
2017-11-06T01:23:23.636Z,72.10
2017-11-06T01:25:51.080Z,72.50
2017-11-06T01:28:18.529Z,72.40
2017-11-06T01:30:46.020Z,72.70
2017-11-06T01:33:13.585Z,72.10
2017-11-06T01:35:41.019Z,72.00
2017-11-06T01:38:08.534Z,72.30
2017-11-06T01:40:36.024Z,72.80
2017-11-06T01:43:03.472Z,71.80
2017-11-06T01:45:30.914Z,71.80
2017-11-06T01:47:58.349Z,71.40
2017-11-06T01:50:25.799Z,71.90
2017-11-06T01:52:53.219Z,72.10
2017-11-06T01:55:20.653Z,72.30
2017-11-06T01:57:48.920Z,72.40
2017-11-06T02:00:16.809Z,72.40
2017-11-06T02:02:44.236Z,72.30
2017-11-06T02:05:11.728Z,72.70
2017-11-06T02:07:39.165Z,72.80
2017-11-06T02:10:06.607Z,72.10
2017-11-06T02:12:34.050Z,71.60
2017-11-06T02:15:01.492Z,71.60
2017-11-06T02:17:28.931Z,71.90
2017-11-06T02:19:56.372Z,72.10
2017-11-06T02:22:23.803Z,71.70
2017-11-06T02:24:51.258Z,71.30
2017-11-06T02:27:18.697Z,71.40
2017-11-06T02:29:46.243Z,71.50
2017-11-06T02:32:13.671Z,71.90
2017-11-06T02:34:41.111Z,71.90
2017-11-06T02:37:08.585Z,71.50
2017-11-06T02:39:36.121Z,71.00
2017-11-06T02:42:03.564Z,72.10
2017-11-06T02:44:31.108Z,72.00
2017-11-06T02:46:58.565Z,72.00
2017-11-06T02:49:26.006Z,71.60
2017-11-06T02:51:53.539Z,72.30
2017-11-06T02:54:21.170Z,72.00
2017-11-06T02:56:48.616Z,71.90
2017-11-06T02:59:16.048Z,71.80
2017-11-06T03:01:43.485Z,71.40
2017-11-06T03:04:10.917Z,71.70
2017-11-06T03:06:38.339Z,71.70
2017-11-06T03:09:06.581Z,71.80
2017-11-06T03:11:34.019Z,71.80
2017-11-06T03:14:01.564Z,71.50
2017-11-06T03:16:29.004Z,72.60
2017-11-06T03:18:56.449Z,72.30
2017-11-06T03:21:23.900Z,73.20
2017-11-06T03:23:52.883Z,72.10
2017-11-06T03:26:20.321Z,72.00
2017-11-06T03:28:48.581Z,71.90
2017-11-06T03:31:16.024Z,72.00
2017-11-06T03:33:43.457Z,71.80
2017-11-06T03:36:10.896Z,71.90
2017-11-06T03:38:38.351Z,71.50
2017-11-06T03:41:05.796Z,72.20
2017-11-06T03:43:33.228Z,72.20
2017-11-06T03:46:00.671Z,72.20
2017-11-06T03:48:28.104Z,71.40
2017-11-06T03:50:55.571Z,71.20
2017-11-06T03:53:22.996Z,72.30
2017-11-06T03:55:50.449Z,71.80
2017-11-06T03:58:18.693Z,72.50
2017-11-06T04:00:46.124Z,72.40
2017-11-06T04:03:13.561Z,72.20
2017-11-06T04:05:40.987Z,72.20
2017-11-06T04:08:08.452Z,72.30
2017-11-06T04:10:35.888Z,71.90
2017-11-06T04:13:03.445Z,71.40
2017-11-06T04:15:30.878Z,71.30
2017-11-06T04:17:58.332Z,71.50
2017-11-06T04:20:25.760Z,71.20
2017-11-06T04:22:53.217Z,71.60
2017-11-06T04:25:20.767Z,72.60
2017-11-06T04:27:48.305Z,72.20
2017-11-06T04:30:15.754Z,72.10
2017-11-06T04:32:43.220Z,71.60
2017-11-06T04:35:11.424Z,71.90
2017-11-06T04:37:38.908Z,71.90
2017-11-06T04:40:06.340Z,71.60
2017-11-06T04:42:33.770Z,71.60
2017-11-06T04:45:01.225Z,72.10
2017-11-06T04:47:28.664Z,71.90
2017-11-06T04:49:56.100Z,72.20
2017-11-06T04:52:23.547Z,71.40
2017-11-06T04:54:51.252Z,71.80
2017-11-06T04:57:18.690Z,72.00
2017-11-06T04:59:46.152Z,72.40
2017-11-06T05:02:13.596Z,73.10
2017-11-06T05:04:41.123Z,72.10
2017-11-06T05:07:08.611Z,72.60
2017-11-06T05:09:36.335Z,72.90
2017-11-06T05:12:03.768Z,72.80
2017-11-06T05:14:31.696Z,74.30
2017-11-06T05:16:59.903Z,73.70
2017-11-06T05:19:27.335Z,73.60
2017-11-06T05:21:54.806Z,73.80
2017-11-06T05:24:22.369Z,72.20
2017-11-06T05:26:49.805Z,73.80
2017-11-06T05:29:17.233Z,74.50
2017-11-06T05:31:44.704Z,73.60
2017-11-06T05:34:12.243Z,73.30
2017-11-06T05:36:39.687Z,74.00
2017-11-06T05:39:07.164Z,73.90
2017-11-06T05:41:35.365Z,73.10
2017-11-06T05:44:02.800Z,73.10
2017-11-06T05:46:30.259Z,73.10
2017-11-06T05:48:57.748Z,73.90
2017-11-06T05:51:25.951Z,74.00
2017-11-06T05:53:53.419Z,74.00
2017-11-06T05:56:20.973Z,74.30
2017-11-06T05:58:48.421Z,73.10
2017-11-06T06:01:15.939Z,73.50
2017-11-06T06:03:43.403Z,72.90
2017-11-06T06:06:10.831Z,72.80
2017-11-06T06:08:38.292Z,72.70
2017-11-06T06:11:05.825Z,73.50
2017-11-06T06:13:33.365Z,73.00
2017-11-06T06:16:00.882Z,72.50
2017-11-06T06:18:28.534Z,72.00
2017-11-06T06:20:55.980Z,73.60
2017-11-06T06:23:23.448Z,73.60
2017-11-06T06:25:50.885Z,73.90
2017-11-06T06:28:18.319Z,73.60
2017-11-06T06:30:45.764Z,72.90
2017-11-06T06:33:13.252Z,72.70
2017-11-06T06:35:41.499Z,74.20
2017-11-06T06:38:09.717Z,74.40
2017-11-06T06:40:37.145Z,74.40
2017-11-06T06:43:04.610Z,73.70
2017-11-06T06:45:32.097Z,75.20
2017-11-06T06:47:59.622Z,75.20
2017-11-06T06:50:27.057Z,75.30
2017-11-06T06:52:54.508Z,75.90
2017-11-06T06:55:21.944Z,77.30
2017-11-06T06:57:49.381Z,77.60
2017-11-06T07:00:16.926Z,76.40
2017-11-06T07:02:44.416Z,76.80
2017-11-06T07:05:12.642Z,76.10
2017-11-06T07:07:40.123Z,76.10
2017-11-06T07:10:08.372Z,74.70
2017-11-06T07:12:36.563Z,75.60
2017-11-06T07:15:04.129Z,75.60
2017-11-06T07:17:31.564Z,74.80
2017-11-06T07:19:59.041Z,74.30
2017-11-06T07:22:26.487Z,74.70
2017-11-06T07:24:53.917Z,75.40
2017-11-06T07:27:21.372Z,74.30
2017-11-06T07:29:48.827Z,75.20
2017-11-06T07:32:16.269Z,75.50
2017-11-06T07:34:43.799Z,75.10
2017-11-06T07:37:11.231Z,75.20
2017-11-06T07:39:38.680Z,73.80
2017-11-06T07:42:06.116Z,72.90
2017-11-06T07:44:33.556Z,74.10
2017-11-06T07:47:00.983Z,74.00
2017-11-06T07:49:28.434Z,73.90
2017-11-06T07:51:55.888Z,73.40
2017-11-06T07:54:23.344Z,73.60
2017-11-06T07:56:50.802Z,73.50
2017-11-06T07:59:18.244Z,72.90
2017-11-06T08:01:45.677Z,72.50
2017-11-06T08:04:13.117Z,73.10
2017-11-06T08:06:42.055Z,73.00
2017-11-06T08:09:09.493Z,72.90
2017-11-06T08:11:36.928Z,72.80
2017-11-06T08:14:04.412Z,71.30
2017-11-06T08:16:41.167Z,71.80
2017-11-06T08:19:08.608Z,72.10
2017-11-06T08:21:36.073Z,71.50
2017-11-06T08:24:03.575Z,72.30
2017-11-06T08:26:31.008Z,73.00
2017-11-06T08:28:58.516Z,72.20
2017-11-06T08:31:26.712Z,72.40
2017-11-06T08:33:54.224Z,72.40
2017-11-06T08:36:22.427Z,72.20
2017-11-06T08:38:49.863Z,72.30
2017-11-06T08:41:17.317Z,72.50
2017-11-06T08:43:44.834Z,72.30
2017-11-06T08:46:12.284Z,70.60
2017-11-06T08:48:39.760Z,71.50
2017-11-06T08:51:07.200Z,72.10
2017-11-06T08:53:34.730Z,71.40
2017-11-06T08:56:02.200Z,71.20
2017-11-06T08:58:29.742Z,70.30
2017-11-06T09:00:57.173Z,70.10
2017-11-06T09:03:24.633Z,70.30
2017-11-06T09:05:52.070Z,71.10
2017-11-06T09:08:19.671Z,71.10
2017-11-06T09:10:47.114Z,71.40
2017-11-06T09:13:14.595Z,71.70
2017-11-06T09:15:42.043Z,70.50
2017-11-06T09:18:09.575Z,72.90
2017-11-06T09:20:37.010Z,73.00
2017-11-06T09:23:04.490Z,72.20
2017-11-06T09:25:31.915Z,72.60
2017-11-06T09:27:59.356Z,72.20
2017-11-06T09:30:26.937Z,71.20
2017-11-06T09:32:54.377Z,70.90
2017-11-06T09:35:21.829Z,71.10
2017-11-06T09:37:49.372Z,69.80
2017-11-06T09:40:17.632Z,70.00
2017-11-06T09:42:45.093Z,70.00
2017-11-06T09:45:13.309Z,71.00
2017-11-06T09:47:40.748Z,71.00
2017-11-06T09:50:08.228Z,70.20
2017-11-06T09:52:35.688Z,70.40
2017-11-06T09:55:03.888Z,71.40
2017-11-06T09:57:31.368Z,71.40
2017-11-06T09:59:58.899Z,70.30
2017-11-06T10:02:26.352Z,69.80
2017-11-06T10:04:53.791Z,69.60
2017-11-06T10:07:21.226Z,70.80
2017-11-06T10:09:48.686Z,69.60
2017-11-06T10:12:16.220Z,70.70
2017-11-06T10:14:43.772Z,70.00
2017-11-06T10:17:11.201Z,68.70
2017-11-06T10:19:39.628Z,69.90
2017-11-06T10:22:07.076Z,69.00
2017-11-06T10:24:34.507Z,68.60
2017-11-06T10:27:01.948Z,68.40
2017-11-06T10:29:29.544Z,66.40
2017-11-06T10:31:56.981Z,68.30
2017-11-06T10:34:24.408Z,70.30
2017-11-06T10:36:51.927Z,68.50
2017-11-06T10:39:20.139Z,67.50
2017-11-06T10:41:49.100Z,68.60
2017-11-06T10:44:16.543Z,68.60
2017-11-06T10:46:43.980Z,66.80
2017-11-06T10:49:11.467Z,68.40
2017-11-06T10:51:38.987Z,66.90
2017-11-06T10:54:06.448Z,67.80
2017-11-06T10:56:34.248Z,68.10
2017-11-06T10:59:01.740Z,68.70
2017-11-06T11:01:29.250Z,69.00
2017-11-06T11:03:56.755Z,68.50
2017-11-06T11:06:24.945Z,68.40
2017-11-06T11:08:52.436Z,68.40
2017-11-06T11:11:20.647Z,69.90
2017-11-06T11:13:48.080Z,69.70
2017-11-06T11:16:15.520Z,71.30
2017-11-06T11:18:42.945Z,71.60
2017-11-06T11:21:10.425Z,69.70
2017-11-06T11:23:37.909Z,69.70
2017-11-06T11:26:05.349Z,70.30
2017-11-06T11:28:32.839Z,68.00
2017-11-06T11:31:00.322Z,68.20
2017-11-06T11:33:27.771Z,67.90
2017-11-06T11:35:55.200Z,66.10
2017-11-06T11:38:22.649Z,65.50
2017-11-06T11:40:50.096Z,65.90
2017-11-06T11:43:17.576Z,67.50
2017-11-06T11:45:45.085Z,68.10
2017-11-06T11:48:13.279Z,68.50
2017-11-06T11:50:40.781Z,68.50
2017-11-06T11:53:08.320Z,70.30
2017-11-06T11:55:35.879Z,69.80
2017-11-06T11:58:03.313Z,70.70
2017-11-06T12:00:30.751Z,70.70
2017-11-06T12:02:58.285Z,69.80
2017-11-06T12:05:25.733Z,69.80
2017-11-06T12:07:53.172Z,70.30
2017-11-06T12:10:20.632Z,70.30
2017-11-06T12:12:48.072Z,70.20
2017-11-06T12:15:15.513Z,69.00
2017-11-06T12:17:42.960Z,69.60
2017-11-06T12:20:10.441Z,68.80
2017-11-06T12:22:37.951Z,69.80
2017-11-06T12:25:05.427Z,67.80
2017-11-06T12:27:33.663Z,68.00
2017-11-06T12:30:01.100Z,68.00
2017-11-06T12:32:28.552Z,67.90
2017-11-06T12:34:56.018Z,68.20
2017-11-06T12:37:24.348Z,67.50
2017-11-06T12:39:51.768Z,67.50
2017-11-06T12:42:19.400Z,67.60
2017-11-06T12:44:46.840Z,68.30
2017-11-06T12:47:14.269Z,67.80
2017-11-06T12:49:41.880Z,67.00
2017-11-06T12:52:10.148Z,64.90
2017-11-06T12:54:37.616Z,64.90
2017-11-06T12:57:05.121Z,65.00
2017-11-06T12:59:32.552Z,64.50
2017-11-06T13:02:00.008Z,64.50
2017-11-06T13:04:27.548Z,64.70
2017-11-06T13:06:54.992Z,64.60
2017-11-06T13:09:22.436Z,65.30
2017-11-06T13:11:49.876Z,66.10
2017-11-06T13:14:17.321Z,66.10
2017-11-06T13:16:44.755Z,66.00
2017-11-06T13:19:12.315Z,65.60
2017-11-06T13:21:40.616Z,66.80
2017-11-06T13:24:08.066Z,67.40
2017-11-06T13:26:35.552Z,66.50
2017-11-06T13:29:02.988Z,66.50
2017-11-06T13:31:30.436Z,65.90
2017-11-06T13:33:57.947Z,65.50
2017-11-06T13:36:25.381Z,65.80
2017-11-06T13:38:53.275Z,66.90
2017-11-06T13:41:20.745Z,67.70
2017-11-06T13:43:48.270Z,67.70
2017-11-06T13:46:15.692Z,67.90
2017-11-06T13:48:43.128Z,67.00
2017-11-06T13:51:10.744Z,67.60
2017-11-06T13:53:38.237Z,67.30
2017-11-06T13:56:05.671Z,66.00
2017-11-06T13:58:33.185Z,66.50
2017-11-06T14:01:00.616Z,66.50
2017-11-06T14:03:28.072Z,67.20
2017-11-06T14:05:55.525Z,66.50
2017-11-06T14:08:22.952Z,66.60
2017-11-06T14:10:50.437Z,67.10
2017-11-06T14:13:17.876Z,68.10
2017-11-06T14:15:45.312Z,67.60
2017-11-06T14:18:12.756Z,66.70
2017-11-06T14:20:40.190Z,66.00
2017-11-06T14:23:07.745Z,66.90
2017-11-06T14:25:35.176Z,66.40
2017-11-06T14:28:02.613Z,68.40
2017-11-06T14:30:30.111Z,68.20
2017-11-06T14:32:58.750Z,66.30
2017-11-06T14:35:26.304Z,66.30
2017-11-06T14:37:53.765Z,66.80
2017-11-06T14:40:21.965Z,66.80
2017-11-06T14:42:49.443Z,66.80
2017-11-06T14:45:16.883Z,67.50
2017-11-06T14:47:44.323Z,67.30
2017-11-06T14:50:11.781Z,66.90
2017-11-06T14:52:39.215Z,66.50
2017-11-06T14:55:06.652Z,66.40
2017-11-06T14:57:34.095Z,67.20
2017-11-06T15:00:01.536Z,66.30
2017-11-06T15:02:28.963Z,66.90
2017-11-06T15:04:56.420Z,66.70
2017-11-06T15:07:23.856Z,66.40
2017-11-06T15:09:51.276Z,67.10
2017-11-06T15:12:18.715Z,67.80
2017-11-06T15:14:46.169Z,67.30
2017-11-06T15:17:13.596Z,66.50
2017-11-06T15:19:41.089Z,66.70
2017-11-06T15:22:08.552Z,66.50
2017-11-06T15:24:36.753Z,66.70
2017-11-06T15:27:04.194Z,66.80
2017-11-06T15:29:31.633Z,66.80
2017-11-06T15:31:59.125Z,66.80
2017-11-06T15:34:26.564Z,66.20
2017-11-06T15:36:54.180Z,67.00
2017-11-06T15:39:21.615Z,66.80
2017-11-06T15:41:49.036Z,66.10
2017-11-06T15:44:16.491Z,66.30
2017-11-06T15:46:43.976Z,67.00
2017-11-06T15:49:11.440Z,68.10
2017-11-06T15:51:39.672Z,69.20
2017-11-06T15:54:07.172Z,68.50
2017-11-06T15:56:34.635Z,69.20
2017-11-06T15:59:02.085Z,69.70
2017-11-06T16:01:29.517Z,70.50
2017-11-06T16:03:56.944Z,73.20
2017-11-06T16:06:24.428Z,73.50
2017-11-06T16:08:51.868Z,74.40
2017-11-06T16:11:19.323Z,75.40
2017-11-06T16:13:46.740Z,76.90
2017-11-06T16:16:14.233Z,76.80
2017-11-06T16:18:42.472Z,77.50
2017-11-06T16:21:10.042Z,77.50
2017-11-06T16:23:38.280Z,77.90
2017-11-06T16:26:05.734Z,77.90
2017-11-06T16:28:33.156Z,78.60
2017-11-06T16:31:00.608Z,78.80
2017-11-06T16:33:28.141Z,79.10
2017-11-06T16:35:55.596Z,79.00
2017-11-06T16:38:23.045Z,79.50
2017-11-06T16:40:51.300Z,79.80
2017-11-06T16:43:18.781Z,79.70
2017-11-06T16:45:46.960Z,79.20
2017-11-06T16:48:14.405Z,79.30
2017-11-06T16:50:41.883Z,80.10
2017-11-06T16:53:09.434Z,80.70
2017-11-06T16:55:36.884Z,80.30
2017-11-06T16:58:04.313Z,79.60
2017-11-06T17:00:31.751Z,79.90
2017-11-06T17:02:59.191Z,79.80
2017-11-06T17:05:26.664Z,80.50
2017-11-06T17:07:54.095Z,80.40
2017-11-06T17:10:21.872Z,80.30
2017-11-06T17:12:50.146Z,80.30
2017-11-06T17:15:17.592Z,80.30
2017-11-06T17:17:45.088Z,80.20
2017-11-06T17:20:12.648Z,79.40
2017-11-06T17:22:40.180Z,79.80
2017-11-06T17:25:07.631Z,79.60
2017-11-06T17:27:35.073Z,79.30
2017-11-06T17:30:02.619Z,79.90
2017-11-06T17:32:30.065Z,80.00
2017-11-06T17:34:57.491Z,79.90
2017-11-06T17:37:24.929Z,79.10
2017-11-06T17:39:52.493Z,78.80
2017-11-06T17:42:20.036Z,78.90
2017-11-06T17:44:47.468Z,80.70
2017-11-06T17:47:14.946Z,79.80
2017-11-06T17:49:43.192Z,80.80
2017-11-06T17:52:11.435Z,80.40
2017-11-06T17:54:38.876Z,80.50
2017-11-06T17:57:07.976Z,79.00
2017-11-06T17:59:36.188Z,78.30
2017-11-06T18:02:03.632Z,78.40
2017-11-06T18:04:31.087Z,78.80
2017-11-06T18:06:58.521Z,78.90
2017-11-06T18:09:25.965Z,79.00
2017-11-06T18:11:53.404Z,79.40
2017-11-06T18:14:20.964Z,78.40
2017-11-06T18:16:48.809Z,78.80
2017-11-06T18:19:16.280Z,79.10
2017-11-06T18:21:44.498Z,79.20
2017-11-06T18:24:11.925Z,79.20
2017-11-06T18:26:39.484Z,79.90
2017-11-06T18:29:06.929Z,79.80
2017-11-06T18:31:34.396Z,79.50
2017-11-06T18:34:01.825Z,79.90
2017-11-06T18:36:29.276Z,79.20
2017-11-06T18:38:57.541Z,78.80
2017-11-06T18:41:26.509Z,78.60
2017-11-06T18:43:53.945Z,78.60
2017-11-06T18:46:21.386Z,80.20
2017-11-06T18:48:48.824Z,80.60
2017-11-06T18:51:16.265Z,80.80
2017-11-06T18:53:43.729Z,81.70
2017-11-06T18:56:21.732Z,81.40
2017-11-06T18:58:49.965Z,81.20
2017-11-06T19:01:17.416Z,81.30
2017-11-06T19:03:44.876Z,81.10
2017-11-06T19:06:12.329Z,81.70
2017-11-06T19:08:39.811Z,82.00
2017-11-06T19:11:07.239Z,83.00
2017-11-06T19:13:34.690Z,82.60
2017-11-06T19:16:02.131Z,83.20
2017-11-06T19:18:29.616Z,81.90
2017-11-06T19:20:57.077Z,82.40
2017-11-06T19:23:24.514Z,83.30
2017-11-06T19:25:51.971Z,82.30
2017-11-06T19:28:19.471Z,81.60
2017-11-06T19:30:46.930Z,82.00
2017-11-06T19:33:14.400Z,82.20
2017-11-06T19:35:42.653Z,82.60
2017-11-06T19:38:10.081Z,82.60
2017-11-06T19:40:37.528Z,82.30
2017-11-06T19:43:04.996Z,81.60
2017-11-06T19:45:33.208Z,82.20
2017-11-06T19:48:00.688Z,82.10
2017-11-06T19:50:28.108Z,82.20
2017-11-06T19:52:55.596Z,82.50
2017-11-06T19:55:23.123Z,82.60
2017-11-06T19:57:52.385Z,82.90
2017-11-06T20:00:19.867Z,82.90
2017-11-06T20:02:47.296Z,81.90
2017-11-06T20:05:15.569Z,80.60
2017-11-06T20:07:43.795Z,81.50
2017-11-06T20:10:11.232Z,81.40
2017-11-06T20:12:38.671Z,81.20
2017-11-06T20:15:06.130Z,81.90
2017-11-06T20:17:33.561Z,82.10
2017-11-06T20:20:01.014Z,82.30
2017-11-06T20:22:28.443Z,81.40
2017-11-06T20:24:55.945Z,81.50
2017-11-06T20:27:24.170Z,81.20
2017-11-06T20:29:51.601Z,81.10
2017-11-06T20:32:19.046Z,81.70
2017-11-06T20:34:46.485Z,81.70
2017-11-06T20:37:13.926Z,82.20
2017-11-06T20:39:41.385Z,82.30
2017-11-06T20:42:08.984Z,82.50
2017-11-06T20:44:36.419Z,83.40
2017-11-06T20:47:04.892Z,83.00
2017-11-06T20:49:32.332Z,83.40
2017-11-06T20:51:59.823Z,82.80
2017-11-06T20:54:27.256Z,82.70
2017-11-06T20:56:54.705Z,82.60
2017-11-06T20:59:22.236Z,81.80
2017-11-06T21:01:49.719Z,80.70
2017-11-06T21:04:18.827Z,81.50
2017-11-06T21:06:46.261Z,81.50
2017-11-06T21:09:13.709Z,81.60
2017-11-06T21:11:41.251Z,82.20
2017-11-06T21:14:08.812Z,82.00
2017-11-06T21:16:36.289Z,82.00
2017-11-06T21:19:03.894Z,82.20
2017-11-06T21:21:31.334Z,81.20
2017-11-06T21:23:59.661Z,81.00
2017-11-06T21:26:27.865Z,81.60
2017-11-06T21:28:55.304Z,81.60
2017-11-06T21:31:22.752Z,80.80
2017-11-06T21:33:50.208Z,80.30
2017-11-06T21:36:17.673Z,80.50
2017-11-06T21:38:45.108Z,79.90
2017-11-06T21:41:12.592Z,80.60
2017-11-06T21:43:40.024Z,79.80
2017-11-06T21:46:08.234Z,80.30
2017-11-06T21:48:35.695Z,80.30
2017-11-06T21:51:03.146Z,80.30
2017-11-06T21:53:31.363Z,81.00
2017-11-06T21:55:58.801Z,81.00
2017-11-06T21:58:26.318Z,80.60
2017-11-06T22:00:54.512Z,79.90
2017-11-06T22:03:21.965Z,79.90
2017-11-06T22:05:49.376Z,80.30
2017-11-06T22:08:16.854Z,80.30
2017-11-06T22:10:44.292Z,80.90
2017-11-06T22:13:11.776Z,81.50
2017-11-06T22:15:39.219Z,81.40
2017-11-06T22:18:06.669Z,81.70
2017-11-06T22:20:34.117Z,81.10
2017-11-06T22:23:02.311Z,82.50
2017-11-06T22:25:29.808Z,82.50
2017-11-06T22:27:57.237Z,81.10
2017-11-06T22:30:24.780Z,80.00
2017-11-06T22:32:52.327Z,78.40
2017-11-06T22:35:19.768Z,78.80
2017-11-06T22:37:47.318Z,80.20
2017-11-06T22:40:14.752Z,80.00
2017-11-06T22:42:42.292Z,79.80
2017-11-06T22:45:09.728Z,79.70
2017-11-06T22:47:37.161Z,80.60
2017-11-06T22:50:04.617Z,80.40
2017-11-06T22:52:32.045Z,81.00
2017-11-06T22:54:59.493Z,82.00
2017-11-06T22:57:28.004Z,82.30
2017-11-06T22:59:56.220Z,81.40
2017-11-06T23:02:24.475Z,81.40
2017-11-06T23:04:51.917Z,81.20
2017-11-06T23:07:19.352Z,80.40
2017-11-06T23:09:46.836Z,81.30
2017-11-06T23:12:14.278Z,81.10
2017-11-06T23:14:41.729Z,81.00
2017-11-06T23:17:09.164Z,81.20
2017-11-06T23:19:36.594Z,81.20
2017-11-06T23:22:04.056Z,81.80
2017-11-06T23:24:31.492Z,82.30
2017-11-06T23:26:58.937Z,82.50
2017-11-06T23:29:26.377Z,81.70
2017-11-06T23:31:53.817Z,81.70
2017-11-06T23:34:21.260Z,82.50
2017-11-06T23:36:48.710Z,82.70
2017-11-06T23:39:16.145Z,82.00
2017-11-06T23:41:43.589Z,83.00
2017-11-06T23:44:11.029Z,82.80
2017-11-06T23:46:39.234Z,82.70
2017-11-06T23:49:06.673Z,82.70
2017-11-06T23:51:34.109Z,83.80
2017-11-06T23:54:01.642Z,83.30
2017-11-06T23:56:29.077Z,83.10
2017-11-06T23:58:56.544Z,82.10
